Time;durP1;ratioP1;P1;durP2;ratioP2;P2;SDS_P1;SDS_P2;PMS_P1;PMS_P2;Temp;Humidity;BMP_temperature;BMP_pressure;BME280_temperature;BME280_humidity;BME280_pressure;Samples;Min_cycle;Max_cycle;Signal;HPM_P1;HPM_P2
2021/11/01 00:00:36;;;;;;;3.93;1.77;;;18.00;99.90;;;18.38;57.20;99620.38;4977130;28;99761;-43
2021/11/01 00:03:02;;;;;;;2.47;1.40;;;18.00;99.90;;;18.37;57.30;99623.97;4974331;28;97639;-43
2021/11/01 00:05:29;;;;;;;6.50;1.40;;;18.00;99.90;;;18.39;57.50;99619.38;4978845;27;97924;-45
2021/11/01 00:07:55;;;;;;;3.43;1.23;;;18.00;99.90;;;18.39;57.32;99620.22;4977805;28;97622;-50
2021/11/01 00:10:21;;;;;;;2.00;1.07;;;18.00;99.90;;;18.40;57.14;99615.75;4976334;27;98444;-42
2021/11/01 00:12:47;;;;;;;4.83;1.67;;;18.10;99.90;;;18.35;57.03;99608.09;5009728;27;96867;-47
2021/11/01 00:15:14;;;;;;;2.27;1.33;;;18.00;99.90;;;18.34;57.22;99606.41;4974121;27;98770;-46
2021/11/01 00:17:41;;;;;;;3.50;1.30;;;17.90;99.90;;;18.35;57.24;99610.78;4977220;28;99744;-47
2021/11/01 00:20:08;;;;;;;2.20;1.17;;;18.00;99.90;;;18.34;57.50;99601.06;4976132;27;99554;-45
2021/11/01 00:22:36;;;;;;;2.50;1.40;;;18.00;99.90;;;18.34;57.32;99605.56;4996011;27;98013;-43
2021/11/01 00:25:05;;;;;;;1.87;1.00;;;18.00;99.90;;;18.35;57.31;99609.91;4978908;28;99062;-42
2021/11/01 00:27:30;;;;;;;6.57;2.37;;;18.00;99.90;;;18.36;56.75;99609.78;4970232;27;101655;-44
2021/11/01 00:29:56;;;;;;;1.80;1.20;;;18.00;99.90;;;18.33;57.42;99622.56;4976198;28;99172;-48
2021/11/01 00:32:22;;;;;;;4.90;1.73;;;17.90;99.90;;;18.35;56.99;99625.94;4969981;27;97603;-42
2021/11/01 00:34:48;;;;;;;1.97;1.30;;;18.00;99.90;;;18.36;57.35;99624.97;4973895;27;97658;-44
2021/11/01 00:37:14;;;;;;;2.50;1.30;;;18.00;99.90;;;18.38;57.00;99623.03;4970663;27;98057;-49
2021/11/01 00:39:39;;;;;;;2.10;1.00;;;18.10;99.90;;;18.44;56.96;99622.50;4976684;27;98658;-43
2021/11/01 00:42:06;;;;;;;1.97;1.10;;;18.10;99.90;;;18.50;57.01;99615.78;4969153;27;98229;-47
2021/11/01 00:44:32;;;;;;;1.87;0.93;;;18.20;99.90;;;18.54;56.76;99607.41;4974205;27;98821;-46
2021/11/01 00:46:59;;;;;;;2.03;0.93;;;18.30;99.90;;;18.58;56.79;99608.00;4978972;27;100375;-44
2021/11/01 00:49:28;;;;;;;2.57;0.90;;;18.30;99.90;;;18.55;56.84;99602.91;4969952;27;99285;-42
2021/11/01 00:51:59;;;;;;;3.63;1.27;;;18.30;99.90;;;18.52;56.96;99604.03;4978026;28;100554;-45
2021/11/01 00:54:25;;;;;;;3.63;1.60;;;18.20;99.90;;;18.50;56.81;99611.28;4968827;27;99112;-42
2021/11/01 00:56:50;;;;;;;3.03;1.13;;;18.20;99.90;;;18.48;57.11;99605.25;4972604;27;99209;-45
2021/11/01 00:59:17;;;;;;;1.90;1.10;;;18.10;99.90;;;18.50;56.92;99611.28;4968246;27;98543;-47
2021/11/01 01:01:45;;;;;;;3.10;1.33;;;18.10;99.90;;;18.58;56.72;99608.00;4993387;27;98259;-44
2021/11/01 01:04:11;;;;;;;2.03;0.97;;;18.30;99.90;;;18.62;56.57;99612.94;4985159;27;97303;-43
2021/11/01 01:06:37;;;;;;;2.20;0.90;;;18.30;99.90;;;18.67;56.56;99618.78;4975017;28;99635;-45
2021/11/01 01:09:03;;;;;;;1.40;0.90;;;18.40;99.90;;;18.71;56.10;99611.34;4990689;27;115272;-46
2021/11/01 01:11:29;;;;;;;2.20;1.00;;;18.50;99.90;;;18.73;56.20;99612.91;4991290;27;97643;-46
2021/11/01 01:13:56;;;;;;;1.63;0.90;;;18.50;99.90;;;18.76;56.05;99606.44;4970495;28;97913;-42
2021/11/01 01:16:25;;;;;;;2.53;1.20;;;18.50;99.90;;;18.81;55.76;99612.25;4970458;27;97536;-45
2021/11/01 01:18:55;;;;;;;1.60;1.23;;;18.60;99.90;;;18.87;55.71;99602.84;4973573;28;97243;-45
2021/11/01 01:24:06;;;;;;;1.97;1.13;;;18.70;99.90;;;18.81;55.99;99603.38;4969814;27;98389;-45
2021/11/01 01:26:32;;;;;;;1.77;0.77;;;18.50;99.90;;;18.78;55.94;99611.66;4970988;27;98727;-46
2021/11/01 01:28:58;;;;;;;1.77;1.10;;;18.50;99.90;;;18.75;55.87;99602.06;4970964;28;99080;-42
2021/11/01 01:31:26;;;;;;;1.97;1.13;;;18.50;99.90;;;18.78;55.98;99590.28;4975283;27;98702;-43
2021/11/01 01:33:53;;;;;;;2.30;1.00;;;18.50;99.90;;;18.85;55.80;99588.78;4969446;28;97812;-42
2021/11/01 01:36:19;;;;;;;1.60;0.97;;;18.60;99.90;;;18.89;55.51;99591.03;4969359;27;98579;-44
2021/11/01 01:38:46;;;;;;;2.30;1.20;;;18.70;99.90;;;18.92;55.46;99588.09;4971082;28;100170;-42
2021/11/01 01:41:34;;;;;;;3.67;1.47;;;18.80;99.90;;;18.97;55.23;99577.03;4968688;27;97381;-44
2021/11/01 01:44:02;;;;;;;1.93;1.17;;;18.80;99.90;;;19.02;55.32;99585.47;4973500;27;102827;-42
2021/11/01 01:46:29;;;;;;;1.70;0.90;;;18.90;99.90;;;19.08;54.99;99592.09;4966375;27;98635;-46
2021/11/01 01:48:57;;;;;;;1.70;1.00;;;18.90;99.90;;;19.13;55.06;99588.06;4972918;27;101456;-42
2021/11/01 01:51:28;;;;;;;2.17;1.13;;;19.00;99.90;;;19.18;54.78;99596.50;4966307;27;97722;-42
2021/11/01 01:53:56;;;;;;;2.20;1.20;;;19.10;99.90;;;19.22;54.57;99587.22;4967092;27;98719;-43
2021/11/01 01:56:23;;;;;;;1.57;0.90;;;19.20;99.90;;;19.24;54.29;99596.00;4979365;27;99626;-44
2021/11/01 01:58:54;;;;;;;1.67;1.00;;;19.20;99.90;;;19.19;54.39;99590.19;5002273;27;97790;-46
2021/11/01 02:01:20;;;;;;;3.87;1.30;;;19.10;99.90;;;19.14;54.80;99589.75;4953972;27;97370;-43
2021/11/01 02:03:50;;;;;;;3.33;1.23;;;19.00;99.90;;;19.15;54.76;99595.94;4969656;28;98794;-43
2021/11/01 02:06:35;;;;;;;3.73;1.37;;;19.00;99.90;;;19.20;54.45;99594.53;4968094;27;97329;-46
2021/11/01 02:09:10;;;;;;;1.60;0.90;;;19.10;99.90;;;19.23;54.28;99588.91;4976108;28;100166;-42
2021/11/01 02:12:02;;;;;;;1.87;1.23;;;19.20;99.90;;;19.26;54.25;99582.47;4969321;27;99093;-43
2021/11/01 02:14:44;;;;;;;2.33;1.13;;;19.20;99.90;;;19.26;54.47;99582.47;4969720;27;98519;-42
2021/11/01 02:17:17;;;;;;;2.50;1.10;;;19.20;99.90;;;19.28;54.41;99581.38;4965061;27;99704;-43
2021/11/01 02:19:48;;;;;;;1.93;1.00;;;19.20;99.90;;;19.30;54.09;99579.38;4972554;27;97843;-44
2021/11/01 02:22:52;;;;;;;3.37;1.07;;;19.30;99.90;;;19.37;53.98;99573.47;4986621;27;106187;-41
2021/11/01 02:25:44;;;;;;;2.27;1.10;;;19.30;99.90;;;19.39;54.13;99576.91;4950493;27;98529;-42
2021/11/01 02:28:17;;;;;;;1.83;1.27;;;19.40;99.90;;;19.41;54.06;99574.94;4967610;27;97256;-43
2021/11/01 02:30:44;;;;;;;1.23;1.00;;;19.40;99.90;;;19.43;53.89;99572.97;4975893;27;98042;-43
2021/11/01 02:33:13;;;;;;;2.07;1.00;;;19.40;99.90;;;19.44;53.81;99571.97;4964077;27;98294;-41
2021/11/01 02:35:41;;;;;;;2.63;1.13;;;19.50;99.90;;;19.46;53.76;99573.53;5000689;27;100751;-45
2021/11/01 02:38:08;;;;;;;2.00;1.10;;;19.50;99.90;;;19.48;53.93;99576.06;4963230;27;97275;-43
2021/11/01 02:40:34;;;;;;;5.47;1.80;;;19.50;99.90;;;19.43;53.72;99578.31;4953407;28;105843;-42
2021/11/01 02:43:00;;;;;;;2.77;0.90;;;19.40;99.90;;;19.35;53.98;99570.09;5011648;27;104136;-42
2021/11/01 02:45:27;;;;;;;1.77;1.00;;;19.30;99.90;;;19.30;54.21;99555.34;4990194;27;97496;-45
2021/11/01 02:47:53;;;;;;;3.87;1.23;;;19.20;99.90;;;19.22;54.36;99560.50;5010959;27;99547;-41
2021/11/01 02:50:21;;;;;;;1.77;1.10;;;19.10;99.90;;;19.14;54.31;99560.34;4987379;27;99498;-43
2021/11/01 02:52:47;;;;;;;2.03;1.03;;;18.90;99.90;;;19.05;54.89;99566.50;4995223;27;97248;-43
2021/11/01 02:55:15;;;;;;;4.30;1.27;;;18.80;99.90;;;18.93;54.83;99575.59;4983598;27;97360;-42
2021/11/01 02:57:44;;;;;;;5.50;1.60;;;18.60;99.90;;;18.81;55.15;99582.03;4996989;27;98316;-45
2021/11/01 03:00:13;;;;;;;1.73;1.10;;;18.40;99.90;;;18.70;55.83;99573.09;4984955;27;101037;-47
2021/11/01 03:02:39;;;;;;;2.17;1.10;;;18.30;99.90;;;18.68;55.75;99571.53;4993081;28;97032;-42
2021/11/01 03:05:15;;;;;;;2.27;0.93;;;18.30;99.90;;;18.66;55.82;99569.00;4993644;27;97253;-46
2021/11/01 03:07:42;;;;;;;3.40;1.00;;;18.30;99.90;;;18.58;55.92;99582.13;4994240;27;101794;-42
2021/11/01 03:10:10;;;;;;;2.33;1.00;;;18.20;99.90;;;18.52;56.37;99571.13;4978030;27;98525;-44
2021/11/01 03:12:42;;;;;;;2.67;1.27;;;18.10;99.90;;;18.47;56.33;99560.84;4996775;27;104782;-46
2021/11/01 03:15:16;;;;;;;2.37;1.10;;;18.10;99.90;;;18.43;56.37;99562.09;4992801;27;97331;-42
2021/11/01 03:17:47;;;;;;;4.03;1.40;;;18.00;99.90;;;18.39;56.30;99560.66;4990674;27;97188;-44
2021/11/01 03:20:20;;;;;;;2.23;1.30;;;18.00;99.90;;;18.44;56.42;99553.09;4987268;27;97365;-42
2021/11/01 03:22:53;;;;;;;1.53;0.97;;;18.10;99.90;;;18.45;56.28;99560.13;4986716;28;97331;-42
2021/11/01 03:26:16;;;;;;;3.20;1.30;;;18.10;99.90;;;18.44;56.15;99563.78;4996520;27;97606;-42
2021/11/01 03:28:50;;;;;;;2.60;1.23;;;18.10;99.90;;;18.40;56.68;99562.34;4914489;28;100677;-43
2021/11/01 03:31:21;;;;;;;1.57;0.90;;;18.10;99.90;;;18.35;56.59;99560.03;4981681;27;97111;-42
2021/11/01 03:33:47;;;;;;;2.53;1.07;;;18.00;99.90;;;18.36;56.90;99566.22;4998049;28;96903;-43
2021/11/01 03:36:13;;;;;;;3.40;1.20;;;18.00;99.90;;;18.35;56.80;99560.03;5005485;27;97181;-43
2021/11/01 03:38:41;;;;;;;1.37;1.00;;;18.00;99.90;;;18.39;56.77;99560.66;5012231;27;99563;-42
2021/11/01 03:41:10;;;;;;;3.10;1.17;;;18.10;99.90;;;18.42;56.58;99571.06;4989084;27;99042;-42
2021/11/01 03:43:45;;;;;;;2.30;1.00;;;18.10;99.90;;;18.43;56.34;99567.41;5026197;27;97316;-42
2021/11/01 03:46:12;;;;;;;4.07;1.63;;;18.10;99.90;;;18.38;56.18;99575.84;4987410;27;97621;-45
2021/11/01 03:48:43;;;;;;;2.93;1.23;;;18.10;99.90;;;18.32;56.73;99572.81;5006302;27;97318;-42
2021/11/01 03:53:37;;;;;;;6.90;1.60;;;17.90;99.90;;;18.30;56.33;99577.44;5000569;27;96751;-46
2021/11/01 03:56:05;;;;;;;2.77;1.00;;;17.90;99.90;;;18.30;56.90;99572.09;4999108;28;96768;-43
2021/11/01 03:58:33;;;;;;;3.63;1.33;;;17.90;99.90;;;18.29;56.86;99565.91;4988041;27;100481;-43
2021/11/01 04:00:59;;;;;;;2.50;1.17;;;17.90;99.90;;;18.27;56.75;99577.72;4992058;27;97521;-41
2021/11/01 04:03:27;;;;;;;3.10;1.00;;;17.90;99.90;;;18.31;56.74;99584.47;4991733;27;97434;-41
2021/11/01 04:06:03;;;;;;;1.93;1.10;;;17.90;99.90;;;18.37;56.87;99579.47;4992699;28;96840;-44
2021/11/01 04:08:31;;;;;;;1.10;0.80;;;18.00;99.90;;;18.51;56.19;99582.78;4987788;28;97668;-42
2021/11/01 04:10:57;;;;;;;1.77;1.00;;;18.30;99.90;;;18.62;56.04;99578.22;4993899;27;98211;-43
2021/11/01 04:13:24;;;;;;;2.63;1.20;;;18.50;99.90;;;18.72;55.50;99579.16;5022508;27;97438;-41
2021/11/01 04:16:10;;;;;;;1.83;0.93;;;18.60;99.90;;;18.82;55.25;99567.69;4988959;28;97083;-41
2021/11/01 04:21:22;;;;;;;2.87;1.10;;;18.80;99.90;;;18.96;54.83;99575.34;4969651;27;97299;-43
2021/11/01 04:23:49;;;;;;;1.43;0.80;;;18.90;99.90;;;19.00;54.66;99566.91;5002264;27;97181;-43
2021/11/01 04:26:17;;;;;;;1.97;1.00;;;19.00;99.90;;;19.05;54.78;99577.19;4994472;28;96943;-43
2021/11/01 04:28:42;;;;;;;1.23;0.77;;;19.00;99.90;;;19.09;54.41;99565.25;5008797;27;96971;-43
2021/11/01 04:31:15;;;;;;;2.10;0.70;;;19.00;99.90;;;19.17;54.28;99578.78;4989307;28;97592;-42
2021/11/01 04:33:42;;;;;;;2.03;0.90;;;19.10;99.90;;;19.22;54.11;99576.53;4989676;28;97376;-43
2021/11/01 04:36:09;;;;;;;1.47;0.80;;;19.20;99.90;;;19.27;54.10;99574.31;5020724;27;97226;-42
2021/11/01 04:54:27;;;;;;;1.93;1.00;;;19.30;99.90;;;19.20;53.87;99577.66;4993907;27;97328;-43
2021/11/01 04:56:53;;;;;;;1.87;0.73;;;19.10;99.90;;;19.15;53.91;99586.09;4992382;27;97496;-44
2021/11/01 04:59:21;;;;;;;1.90;0.83;;;19.00;99.90;;;19.09;54.12;99585.78;4977478;27;97654;-43
2021/11/01 05:01:50;;;;;;;2.47;1.17;;;18.90;99.90;;;19.03;54.32;99588.00;4995813;28;97148;-44
2021/11/01 05:04:21;;;;;;;2.57;0.90;;;18.80;99.90;;;18.98;54.64;99589.41;4989686;27;96930;-45
2021/11/01 05:06:59;;;;;;;1.67;0.90;;;18.80;99.90;;;19.01;54.46;99581.13;4996606;27;96814;-44
2021/11/01 05:25:27;;;;;;;4.20;1.10;;;18.80;99.90;;;18.89;54.39;99574.16;5014224;27;96926;-42
2021/11/01 05:30:59;;;;;;;1.73;0.70;;;18.70;99.90;;;18.96;54.27;99580.69;4973544;27;101558;-43
2021/11/01 05:35:57;;;;;;;3.10;0.90;;;18.80;99.90;;;18.97;54.48;99598.41;4992453;27;97098;-44
2021/11/01 05:38:22;;;;;;;2.43;1.10;;;18.90;99.90;;;19.02;54.11;99596.16;4995118;28;97396;-43
2021/11/01 05:40:48;;;;;;;1.13;0.80;;;18.90;99.90;;;19.08;54.14;99590.28;4994018;27;97343;-43
2021/11/01 05:43:14;;;;;;;1.40;0.80;;;19.00;99.90;;;19.12;53.97;99594.38;4980557;27;97211;-47
2021/11/01 05:45:40;;;;;;;2.53;1.17;;;19.10;99.90;;;19.18;53.65;99591.16;4998161;27;97171;-42
2021/11/01 05:48:06;;;;;;;1.13;0.97;;;19.20;99.90;;;19.23;53.86;99594.25;4993237;28;102704;-47
2021/11/01 05:50:35;;;;;;;1.17;0.70;;;19.30;99.90;;;19.28;53.35;99594.72;4989241;28;99791;-41
2021/11/01 05:53:04;;;;;;;1.37;0.90;;;19.30;99.90;;;19.30;53.46;99595.44;4993110;27;97208;-45
2021/11/01 05:55:45;;;;;;;1.97;1.00;;;19.30;99.90;;;19.32;53.29;99582.78;4988098;28;96809;-44
2021/11/01 05:58:40;;;;;;;2.07;1.10;;;19.40;99.90;;;19.36;53.19;99577.16;4992089;27;97364;-41
2021/11/01 06:14:01;;;;;;;2.10;1.10;;;18.90;99.90;;;19.00;54.09;99607.00;4964087;27;97037;-43
2021/11/01 06:16:27;;;;;;;2.13;0.93;;;18.80;99.90;;;19.02;53.91;99596.16;4997182;28;96965;-41
2021/11/01 06:18:53;;;;;;;1.57;0.87;;;18.80;99.90;;;18.97;54.22;99595.72;4971640;28;96925;-42
2021/11/01 06:21:20;;;;;;;2.63;1.00;;;18.80;99.90;;;19.00;54.29;99587.44;4987187;28;97110;-44
2021/11/01 06:23:54;;;;;;;1.40;0.80;;;18.80;99.90;;;18.98;54.08;99590.25;5010955;27;97238;-44
2021/11/01 06:26:22;;;;;;;1.73;0.80;;;18.80;99.90;;;18.95;54.11;99598.53;5022526;27;98899;-45
2021/11/01 06:28:56;;;;;;;1.93;0.70;;;18.80;99.90;;;18.96;54.19;99599.38;5018479;27;97481;-41
2021/11/01 06:31:27;;;;;;;1.47;0.63;;;18.80;99.90;;;18.88;54.32;99601.88;5000173;27;98909;-44
2021/11/01 07:14:28;;;;;;;1.77;0.70;;;18.70;99.90;;;18.84;54.31;99661.88;4986469;28;97651;-42
2021/11/01 07:17:05;;;;;;;2.47;0.90;;;18.80;99.90;;;18.92;54.30;99662.06;4993760;27;101060;-42
2021/11/01 08:43:46;;;;;;;1.70;0.80;;;18.10;99.90;;;18.43;55.22;99707.09;4990287;27;97383;-44
2021/11/01 09:08:18;;;;;;;7.80;2.27;;;17.00;99.90;;;17.46;55.40;99699.84;4993410;28;97185;-47
2021/11/01 09:22:03;;;;;;;5.93;1.27;;;17.00;99.90;;;17.37;57.54;99697.94;4973655;28;96949;-46
2021/11/01 09:26:56;;;;;;;5.60;1.80;;;16.70;99.90;;;16.95;52.58;99686.16;4992611;27;97644;-44
2021/11/01 09:42:48;;;;;;;2.43;0.83;;;16.40;99.90;;;16.95;58.22;99692.31;4991991;27;98144;-41
2021/11/01 09:45:16;;;;;;;5.47;1.60;;;16.70;99.90;;;17.04;57.33;99692.56;4992359;27;98506;-45
2021/11/01 09:47:43;;;;;;;7.00;1.50;;;16.80;99.90;;;16.98;51.14;99687.72;4990257;28;96978;-47
2021/11/01 09:50:10;;;;;;;4.73;1.40;;;16.80;99.80;;;17.09;56.24;99679.75;4973330;28;97754;-43
2021/11/01 09:52:37;;;;;;;3.87;1.07;;;16.80;99.90;;;17.13;57.39;99681.19;4988118;27;97168;-42
2021/11/01 09:55:24;;;;;;;6.37;1.40;;;16.80;99.90;;;17.13;55.03;99681.19;4995673;27;98115;-44
2021/11/01 09:59:11;;;;;;;5.63;1.60;;;16.80;99.90;;;17.13;52.70;99681.19;4996010;27;100815;-43
2021/11/01 10:00:46;;;;;;;4.70;1.07;;;16.90;99.90;;;16.93;49.10;99688.09;4976666;27;98869;-42
2021/11/01 10:03:13;;;;;;;6.57;1.40;;;16.80;99.10;;;17.03;56.33;99680.22;4973521;27;97973;-42
2021/11/01 10:05:39;;;;;;;4.07;1.40;;;16.70;99.90;;;16.91;53.97;99674.00;4973603;28;98593;-46
2021/11/01 10:08:17;;;;;;;4.13;1.27;;;16.60;99.90;;;16.75;50.82;99666.34;4982645;28;112788;-45
2021/11/01 10:10:43;;;;;;;3.33;1.30;;;16.50;99.10;;;16.87;50.73;99684.06;4973152;28;97168;-42
2021/11/01 10:13:14;;;;;;;2.33;1.20;;;16.70;99.90;;;17.04;57.03;99681.91;4972124;27;96979;-47
2021/11/01 10:18:25;;;;;;;3.87;1.27;;;16.80;99.40;;;16.97;53.75;99678.03;4973146;27;98129;-45
2021/11/01 10:20:55;;;;;;;4.83;1.03;;;16.80;99.80;;;17.03;51.41;99693.53;4956071;28;98794;-46
2021/11/01 10:23:33;;;;;;;5.87;1.13;;;16.90;99.60;;;16.92;49.29;99689.03;4969764;27;106133;-43
2021/11/01 10:26:13;;;;;;;4.50;1.47;;;16.80;98.80;;;17.01;53.34;99683.00;4975741;27;97932;-42
2021/11/01 10:28:39;;;;;;;5.13;1.17;;;16.80;99.70;;;17.02;48.89;99675.84;4986610;27;103308;-45
2021/11/01 10:31:21;;;;;;;6.10;1.33;;;16.90;99.20;;;17.15;53.02;99679.25;4973545;28;99709;-45
2021/11/01 10:33:48;;;;;;;3.80;1.07;;;17.00;99.30;;;16.94;48.10;99677.31;4969942;28;99110;-43
2021/11/01 10:36:28;;;;;;;4.33;1.20;;;16.90;97.70;;;17.01;51.14;99677.66;4967170;27;97144;-44
2021/11/01 10:39:04;;;;;;;3.43;0.90;;;16.90;99.00;;;17.30;50.79;99677.19;4994709;27;101986;-44
2021/11/01 11:14:35;;;;;;;2.67;0.80;;;17.80;98.40;;;17.91;45.01;99661.66;4967479;27;97504;-41
2021/11/01 11:25:12;;;;;;;6.53;1.10;;;17.90;94.20;;;18.02;42.70;99649.13;4973029;27;97733;-43
2021/11/01 11:30:34;;;;;;;5.63;1.20;;;18.00;94.40;;;18.14;43.75;99648.13;4974943;27;99958;-42
2021/11/01 11:37:22;;;;;;;5.40;1.20;;;18.10;94.30;;;18.28;48.31;99643.47;4984441;27;103273;-44
2021/11/01 11:39:32;;;;;;;2.17;0.60;;;18.20;96.00;;;18.31;49.44;99645.88;4967804;28;97956;-43
2021/11/01 11:47:43;;;;;;;5.93;0.90;;;18.40;98.10;;;18.34;46.67;99658.94;4993384;27;96803;-45
2021/11/01 11:50:27;;;;;;;3.73;0.90;;;18.20;94.90;;;18.09;43.62;99650.34;5016489;27;97251;-44
2021/11/01 11:52:54;;;;;;;4.00;0.93;;;17.90;92.90;;;18.04;46.91;99649.84;5012190;28;100897;-41
2021/11/01 11:55:27;;;;;;;3.10;0.80;;;17.90;94.00;;;18.01;49.05;99647.44;5020398;27;100435;-41
2021/11/01 11:57:57;;;;;;;3.83;0.80;;;17.80;95.60;;;17.86;44.74;99643.34;4995183;28;96697;-47
2021/11/01 12:00:28;;;;;;;3.00;0.80;;;17.70;94.70;;;17.82;46.16;99636.59;4983879;28;98888;-42
2021/11/01 12:02:57;;;;;;;6.13;1.10;;;17.60;95.80;;;17.65;41.54;99634.38;4992181;28;99359;-45
2021/11/01 12:05:45;;;;;;;3.60;1.17;;;17.60;92.60;;;17.61;41.80;99643.63;4983637;27;99435;-44
2021/11/01 12:08:44;;;;;;;5.10;1.17;;;17.50;92.60;;;17.65;45.36;99639.72;4996261;28;99002;-44
2021/11/01 12:19:07;;;;;;;2.83;0.80;;;17.80;93.80;;;17.98;45.35;99631.69;4995369;28;98488;-43
2021/11/01 12:21:37;;;;;;;4.57;0.97;;;17.90;94.30;;;18.04;47.17;99624.97;4988196;28;96918;-43
2021/11/01 12:24:21;;;;;;;5.83;1.00;;;18.00;95.60;;;18.16;47.07;99623.13;5021051;27;100359;-43
2021/11/01 12:26:48;;;;;;;3.77;0.90;;;18.10;92.60;;;18.12;40.54;99611.88;5015305;27;102170;-41
2021/11/01 12:29:15;;;;;;;3.83;0.90;;;18.10;91.20;;;18.08;41.84;99615.75;4989567;28;96813;-43
2021/11/01 12:31:42;;;;;;;4.33;0.70;;;18.00;93.10;;;18.03;39.92;99608.13;4990140;28;98942;-42
2021/11/01 12:34:19;;;;;;;2.93;0.80;;;18.00;90.90;;;18.09;42.29;99614.81;4987433;27;98658;-46
2021/11/01 12:37:18;;;;;;;3.27;0.90;;;18.00;93.30;;;18.12;44.22;99620.72;4991760;28;97921;-43
2021/11/01 12:39:59;;;;;;;18.40;2.40;;;18.00;91.30;;;18.12;42.60;99611.88;4989480;28;100389;-42
2021/11/01 12:59:14;;;;;;;1.83;0.60;;;17.90;90.20;;;18.14;49.65;99615.25;4965265;28;97842;-44
2021/11/01 13:01:50;;;;;;;3.23;0.93;;;18.00;95.90;;;18.19;42.73;99612.19;4970229;28;97060;-41
2021/11/01 13:04:39;;;;;;;4.07;0.93;;;18.20;92.10;;;18.30;48.79;99620.16;4964541;27;97743;-41
2021/11/01 13:07:20;;;;;;;2.83;0.67;;;18.30;95.60;;;18.30;42.05;99614.81;4969255;28;102485;-42
2021/11/01 13:09:56;;;;;;;2.37;0.80;;;18.30;91.50;;;18.40;40.98;99608.56;4975073;27;104661;-44
2021/11/01 13:12:52;;;;;;;4.57;0.90;;;18.40;92.20;;;18.56;46.38;99605.44;4968723;28;98964;-43
2021/11/01 13:18:12;;;;;;;2.67;1.00;;;18.60;92.50;;;18.54;40.17;99604.75;4966030;27;99099;-43
2021/11/01 13:20:47;;;;;;;2.30;1.00;;;18.60;90.80;;;18.53;43.74;99600.38;4963534;28;101380;-45
2021/11/01 13:23:14;;;;;;;2.50;0.93;;;18.50;91.30;;;18.30;37.85;99599.63;4964575;28;98715;-41
2021/11/01 13:25:50;;;;;;;1.93;0.60;;;18.40;87.20;;;18.39;41.12;99598.03;4996950;27;97670;-42
2021/11/01 13:38:54;;;;;;;4.10;0.83;;;18.50;92.10;;;18.64;45.05;99584.28;4968169;27;96811;-45
2021/11/01 13:41:29;;;;;;;3.07;0.87;;;18.60;92.60;;;18.65;41.18;99588.66;4992882;27;97444;-42
2021/11/01 13:44:24;;;;;;;2.03;0.70;;;18.60;90.00;;;18.73;41.23;99591.53;4966827;28;98451;-43
2021/11/01 13:47:00;;;;;;;1.80;0.87;;;18.70;90.90;;;18.58;41.21;99592.81;4998051;27;98629;-43
2021/11/01 13:49:36;;;;;;;3.50;1.00;;;18.60;91.10;;;18.49;44.73;99588.25;4965025;28;101012;-42
2021/11/01 13:52:39;;;;;;;2.40;0.67;;;18.40;91.90;;;18.56;42.38;99594.75;4972283;27;98236;-43
2021/11/01 13:55:21;;;;;;;2.40;0.80;;;18.50;92.30;;;18.58;43.25;99598.16;4963464;28;97353;-42
2021/11/01 13:58:04;;;;;;;3.27;0.70;;;18.50;93.00;;;18.42;39.04;99589.75;4956891;28;97359;-42
2021/11/01 14:00:39;;;;;;;3.40;0.77;;;18.40;89.80;;;18.37;41.04;99591.94;4961177;28;98437;-41
2021/11/01 14:03:42;;;;;;;3.73;0.90;;;18.30;91.40;;;18.37;46.20;99589.28;4997768;27;100272;-42
2021/11/01 14:16:44;;;;;;;1.53;0.70;;;18.30;93.00;;;17.62;40.55;99578.66;4967388;28;97626;-48
2021/11/01 14:19:24;;;;;;;3.20;0.60;;;17.60;90.80;;;17.23;40.98;99581.78;4984646;28;97626;-44
2021/11/01 15:18:57;;;;;;;4.30;1.00;;;17.80;94.70;;;17.85;40.36;99593.66;4960942;27;97377;-47
2021/11/01 15:32:50;;;;;;;3.73;1.37;;;17.60;93.90;;;17.77;46.15;99601.41;4971101;27;103527;-45
2021/11/01 16:18:15;;;;;;;3.00;1.20;;;17.50;94.30;;;17.77;49.38;99601.41;4952799;27;97405;-50
2021/11/01 16:20:47;;;;;;;5.23;1.50;;;17.50;95.70;;;17.77;47.82;99606.75;5006453;27;98820;-49
2021/11/01 16:25:42;;;;;;;4.47;1.90;;;17.50;94.00;;;17.79;50.43;99604.81;4987012;27;98878;-46
2021/11/01 16:28:08;;;;;;;6.07;1.63;;;17.40;96.00;;;17.79;49.06;99599.47;4972260;27;103387;-54
2021/11/01 16:30:36;;;;;;;6.37;1.83;;;17.40;95.10;;;17.73;48.25;99605.31;4967406;28;103342;-51
2021/11/01 16:33:07;;;;;;;1.70;0.97;;;17.40;93.90;;;17.74;50.52;99607.00;4975279;27;99689;-47
2021/11/01 16:35:50;;;;;;;2.73;1.03;;;17.40;96.40;;;17.74;47.18;99607.00;4969140;27;97470;-47
2021/11/01 16:38:22;;;;;;;6.63;2.00;;;17.40;96.50;;;17.60;42.62;99612.59;4963345;27;98993;-45
2021/11/01 16:40:51;;;;;;;6.07;1.30;;;17.40;93.00;;;17.67;48.72;99606.66;4952129;27;99446;-49
2021/11/01 16:43:19;;;;;;;4.13;1.47;;;17.40;94.90;;;17.71;50.75;99617.94;4964692;27;98489;-45
2021/11/01 16:45:49;;;;;;;4.63;1.60;;;17.30;98.00;;;17.67;44.26;99611.97;4981482;27;97120;-48
2021/11/01 16:48:15;;;;;;;2.33;0.80;;;17.40;93.60;;;17.76;51.43;99615.72;4974878;27;96733;-45
2021/11/01 16:50:41;;;;;;;2.50;1.20;;;17.40;98.00;;;17.73;47.32;99618.66;4991390;28;100408;-50
2021/11/01 16:53:07;;;;;;;2.93;1.33;;;17.40;95.60;;;17.82;50.09;99615.25;4995180;27;96923;-48
2021/11/01 16:55:35;;;;;;;2.50;1.23;;;17.50;95.40;;;17.81;49.74;99614.41;4997266;27;96875;-47
2021/11/01 16:58:14;;;;;;;3.33;1.10;;;17.50;95.90;;;17.86;50.71;99606.00;4993056;27;97104;-48
2021/11/01 17:03:23;;;;;;;1.47;1.00;;;17.50;95.90;;;17.89;51.16;99610.25;4989627;27;97113;-49
2021/11/01 17:22:29;;;;;;;8.43;2.07;;;17.60;97.20;;;17.78;45.37;99621.78;4993658;27;97589;-47
2021/11/01 17:25:03;;;;;;;4.50;2.03;;;17.50;92.50;;;17.41;41.74;99621.22;4984472;28;97053;-44
2021/11/01 17:36:54;;;;;;;5.70;1.93;;;17.10;95.60;;;17.54;44.03;99637.94;4990183;27;101593;-46
2021/11/01 18:51:29;;;;;;;1.77;1.10;;;18.60;96.50;;;18.70;49.44;99689.78;4963175;27;97099;-46
2021/11/01 18:54:18;;;;;;;2.60;1.43;;;18.50;96.50;;;18.40;43.34;99686.00;4993209;27;97883;-50
2021/11/01 18:56:47;;;;;;;2.87;1.57;;;18.10;94.00;;;18.43;50.45;99679.56;4960614;28;98174;-48
2021/11/01 18:59:14;;;;;;;3.33;1.70;;;18.10;97.80;;;18.48;50.40;99682.66;4957436;27;98039;-50
2021/11/01 19:01:48;;;;;;;3.57;1.80;;;18.20;97.30;;;18.51;50.26;99684.22;4964649;28;100088;-48
2021/11/01 19:04:21;;;;;;;1.77;1.10;;;18.30;97.80;;;18.59;50.32;99690.63;4981823;27;99949;-48
2021/11/01 19:09:34;;;;;;;8.93;3.00;;;18.60;98.50;;;18.75;49.21;99689.38;4963364;27;98030;-48
2021/11/01 19:13:21;;;;;;;3.43;1.40;;;18.70;95.80;;;18.78;49.96;99686.44;4968306;28;99009;-48
2021/11/01 20:13:51;;;;;;;2.20;1.17;;;18.30;98.40;;;18.49;50.74;99655.00;4966381;27;97366;-48
2021/11/01 21:27:02;;;;;;;2.57;1.63;;;19.00;97.50;;;19.02;49.70;99633.56;4974860;27;97564;-45
2021/11/01 21:29:32;;;;;;;2.33;1.60;;;19.00;98.30;;;19.02;49.62;99630.91;4975076;27;98250;-49
2021/11/01 21:31:59;;;;;;;5.47;1.90;;;19.00;98.00;;;19.01;49.55;99631.88;4977741;27;96953;-45
2021/11/01 21:34:34;;;;;;;2.60;1.77;;;18.90;97.70;;;18.94;49.99;99636.06;4969203;27;98819;-46
2021/11/01 21:37:04;;;;;;;2.60;1.50;;;18.80;98.10;;;18.90;49.83;99631.97;5002230;27;99723;-47
2021/11/01 21:39:30;;;;;;;1.70;1.53;;;18.80;98.00;;;18.87;49.86;99629.56;4998747;27;100009;-47
2021/11/01 21:41:56;;;;;;;1.90;1.50;;;18.70;97.90;;;18.89;50.02;99627.59;4971614;27;97405;-49
2021/11/01 21:44:22;;;;;;;2.63;1.50;;;18.70;98.40;;;18.94;49.76;99630.72;4997422;27;97664;-47
2021/11/01 21:46:49;;;;;;;2.53;1.43;;;18.80;98.20;;;18.95;49.65;99625.25;4972125;28;102368;-49
2021/11/01 21:49:15;;;;;;;2.00;1.43;;;18.80;98.10;;;18.97;49.86;99628.66;4998147;27;99899;-51
2021/11/01 21:51:43;;;;;;;3.23;1.87;;;18.90;98.10;;;19.01;49.80;99623.88;4972636;27;99283;-48
2021/11/01 21:57:01;;;;;;;3.43;1.50;;;19.00;97.80;;;19.05;49.55;99627.97;4969942;27;100412;-50
2021/11/01 22:18:56;;;;;;;2.97;1.73;;;19.20;97.50;;;19.20;49.45;99631.97;4971099;27;98525;-46
2021/11/01 22:26:21;;;;;;;2.17;1.70;;;19.00;97.70;;;19.09;49.34;99618.69;4971402;27;96832;-48